KDCA/DCA METAR and TAF weather

Enter ICAO airport designator
Station Type Date Time Source
KDCA METAR 2018/01/24 06:52 UTC NOAA

KDCA 240652Z 28006KT 10SM FEW090 08/M02 A2991 RMK AO2 SLP128 T00781022


Station Type Date Time Source
KDCA Decoded METAR 2018/01/24 06:52 UTC NOAA

WASHINGTON NATIONAL AIRPORT , VA, United States (KDCA) 38-51N 077-02W 18M
Jan 24, 2018 - 01:52 AM EST / 2018.01.24 0652 UTC
Wind: from the W (280 degrees) at 7 MPH (6 KT):0
Visibility: 10 mile(s):0
Sky conditions: mostly clear
Temperature: 46.0 F (7.8 C)
Dew Point: 28.0 F (-2.2 C)
Relative Humidity: 49%
Pressure (altimeter): 29.91 in. Hg (1012 hPa)
ob: KDCA 240652Z 28006KT 10SM FEW090 08/M02 A2991 RMK AO2 SLP128 T00781022
cycle: 7

Station Type Date Time Source
KDCA TAF 2018/01/24 06:42 UTC NOAA

TAF KDCA 240540Z 2406/2512 27009KT P6SM SKC
FM241800 30011KT P6SM BKN040
FM250400 32007KT P6SM BKN060
FM250900 32007KT P6SM SCT130


Example: see airport list